Time;durP1;ratioP1;P1;durP2;ratioP2;P2;SDS_P1;SDS_P2;PMS_P1;PMS_P2;Temp;Humidity;BMP_temperature;BMP_pressure;BME280_temperature;BME280_humidity;BME280_pressure;Samples;Min_cycle;Max_cycle;Signal;HPM_P1;HPM_P2
2024/03/09 00:00:42;;;;;;;;;;;;;;;21.15;44.13;100799.50;2342719;76;51192;-83
2024/03/09 00:03:44;;;;;;;;;;;;;;;21.16;44.02;100802.50;2342771;76;51274;-82
2024/03/09 00:06:46;;;;;;;;;;;;;;;21.14;44.16;100791.92;2305823;76;51013;-83
2024/03/09 00:09:47;;;;;;;;;;;;;;;21.15;44.15;100790.09;2343009;76;50718;-82
2024/03/09 00:12:49;;;;;;;;;;;;;;;21.13;44.16;100788.09;2342792;76;50457;-82
2024/03/09 00:15:51;;;;;;;;;;;;;;;21.14;44.08;100779.81;2342584;76;49973;-82
2024/03/09 00:18:53;;;;;;;;;;;;;;;21.14;44.14;100778.47;2280860;76;50964;-83
2024/03/09 00:21:55;;;;;;;;;;;;;;;21.17;44.01;100769.17;2306386;76;51533;-83
2024/03/09 00:24:57;;;;;;;;;;;;;;;21.16;43.99;100777.77;2306326;76;50975;-82
2024/03/09 00:27:58;;;;;;;;;;;;;;;21.17;43.93;100765.13;2343005;76;50812;-84
2024/03/09 00:31:02;;;;;;;;;;;;;;;21.17;43.71;100766.48;2306145;76;50959;-82
2024/03/09 00:34:03;;;;;;;;;;;;;;;21.17;43.53;100771.86;2307212;76;22353;-82
2024/03/09 00:37:07;;;;;;;;;;;;;;;21.16;43.61;100763.48;2343005;76;50393;-82
2024/03/09 00:40:08;;;;;;;;;;;;;;;21.17;43.49;100763.78;2343156;76;51527;-82
2024/03/09 00:43:10;;;;;;;;;;;;;;;21.17;43.42;100761.09;2306189;76;50100;-83
2024/03/09 00:46:12;;;;;;;;;;;;;;;21.15;43.43;100754.59;2343316;76;51635;-82
2024/03/09 00:49:13;;;;;;;;;;;;;;;21.15;43.38;100750.55;2343391;76;50630;-82
2024/03/09 00:52:15;;;;;;;;;;;;;;;21.15;43.34;100747.03;2343248;76;50719;-82
2024/03/09 00:55:16;;;;;;;;;;;;;;;21.16;43.38;100744.12;2306093;76;50976;-82
2024/03/09 00:58:21;;;;;;;;;;;;;;;21.15;43.33;100740.31;2343366;76;51489;-82
2024/03/09 01:01:23;;;;;;;;;;;;;;;21.15;43.34;100736.27;2343351;76;22568;-82
2024/03/09 01:04:25;;;;;;;;;;;;;;;21.15;43.31;100733.58;2307707;76;22315;-83
2024/03/09 01:07:29;;;;;;;;;;;;;;;21.14;43.32;100728.69;2306264;76;49552;-83
2024/03/09 01:10:29;;;;;;;;;;;;;;;21.14;43.33;100721.96;2342923;76;22556;-82
2024/03/09 01:13:31;;;;;;;;;;;;;;;21.15;43.44;100725.51;2343137;76;50736;-83
2024/03/09 01:16:33;;;;;;;;;;;;;;;21.15;43.44;100720.12;2343010;76;51485;-83
2024/03/09 01:19:35;;;;;;;;;;;;;;;21.15;43.46;100722.30;2305881;76;51015;-83
2024/03/09 01:22:37;;;;;;;;;;;;;;;21.15;43.35;100716.09;2342740;76;51610;-83
2024/03/09 01:25:38;;;;;;;;;;;;;;;21.15;43.36;100719.61;2342136;76;50859;-84
2024/03/09 01:28:41;;;;;;;;;;;;;;;21.16;43.54;100711.84;2342090;76;51441;-83
2024/03/09 01:31:43;;;;;;;;;;;;;;;21.15;43.62;100710.70;2305453;76;50170;-83
2024/03/09 01:34:44;;;;;;;;;;;;;;;21.15;43.49;100709.36;2342523;76;51538;-82
2024/03/09 01:37:48;;;;;;;;;;;;;;;21.15;43.44;100699.95;2305607;76;50119;-81
2024/03/09 01:40:49;;;;;;;;;;;;;;;21.15;43.40;100706.67;2342659;76;22395;-82
2024/03/09 01:43:51;;;;;;;;;;;;;;;21.15;43.33;100709.36;2280296;76;49658;-83
2024/03/09 01:46:52;;;;;;;;;;;;;;;21.14;43.35;100702.30;2342271;76;50614;-83
2024/03/09 01:49:56;;;;;;;;;;;;;;;21.13;43.26;100696.09;2342300;75;50407;-83
2024/03/09 01:52:57;;;;;;;;;;;;;;;21.13;43.32;100699.30;2342540;76;25031;-83
2024/03/09 01:56:00;;;;;;;;;;;;;;;21.13;43.36;100702.00;2305221;76;51074;-83
2024/03/09 01:59:01;;;;;;;;;;;;;;;21.13;43.55;100703.34;2342366;76;51516;-82
2024/03/09 02:02:03;;;;;;;;;;;;;;;21.13;43.67;100695.27;2342356;76;50766;-83
2024/03/09 02:05:10;;;;;;;;;;;;;;;21.12;43.72;100698.97;2342647;76;51465;-83
2024/03/09 02:08:08;;;;;;;;;;;;;;;21.13;43.74;100693.92;2342285;76;22405;-84
2024/03/09 02:11:10;;;;;;;;;;;;;;;21.13;43.73;100685.85;2305619;76;51476;-82
2024/03/09 02:14:12;;;;;;;;;;;;;;;21.12;43.59;100684.17;2342585;76;51548;-83
2024/03/09 02:17:14;;;;;;;;;;;;;;;21.12;43.71;100675.61;2342644;76;51637;-84
2024/03/09 02:20:16;;;;;;;;;;;;;;;21.12;43.73;100675.61;2305735;76;50801;-83
2024/03/09 02:23:20;;;;;;;;;;;;;;;21.12;43.71;100673.41;2342724;76;50463;-84
2024/03/09 02:26:22;;;;;;;;;;;;;;;21.10;43.69;100659.66;2342371;76;50983;-82
2024/03/09 02:29:24;;;;;;;;;;;;;;;21.10;43.63;100658.31;2342539;76;51516;-82
2024/03/09 02:32:25;;;;;;;;;;;;;;;21.10;43.67;100663.69;2305389;76;52357;-82
2024/03/09 02:35:27;;;;;;;;;;;;;;;21.10;43.73;100659.66;2305486;76;50387;-83
2024/03/09 02:38:29;;;;;;;;;;;;;;;21.10;43.71;100659.66;2342259;76;51493;-82
2024/03/09 02:41:30;;;;;;;;;;;;;;;21.09;43.68;100658.01;2341951;76;51413;-82
2024/03/09 02:44:32;;;;;;;;;;;;;;;21.09;43.59;100658.50;2279991;76;49575;-83
2024/03/09 02:47:33;;;;;;;;;;;;;;;21.09;43.70;100652.62;2342407;76;50435;-83
2024/03/09 02:50:35;;;;;;;;;;;;;;;21.08;43.66;100650.95;2342706;76;50469;-83
2024/03/09 02:53:37;;;;;;;;;;;;;;;21.08;43.64;100648.25;2342749;76;50322;-83
2024/03/09 02:56:39;;;;;;;;;;;;;;;21.09;43.46;100652.62;2305622;76;49560;-84
2024/03/09 02:59:40;;;;;;;;;;;;;;;21.10;43.40;100646.20;2342839;76;51493;-84
2024/03/09 03:06:02;;;;;;;;;;;;;;;21.11;43.38;100641.65;2343353;76;22536;-83
2024/03/09 03:09:17;;;;;;;;;;;;;;;21.09;43.27;100635.14;2305890;76;51042;-83
2024/03/09 03:12:17;;;;;;;;;;;;;;;21.10;43.23;100637.31;2308738;76;22375;-84
2024/03/09 03:15:25;;;;;;;;;;;;;;;21.10;43.33;100635.97;2306264;76;51147;-82
2024/03/09 03:18:23;;;;;;;;;;;;;;;21.10;43.08;100637.31;2341549;76;22341;-83
2024/03/09 03:21:26;;;;;;;;;;;;;;;21.08;43.17;100630.77;2305702;76;49649;-83
2024/03/09 03:24:28;;;;;;;;;;;;;;;21.09;43.16;100629.76;2342481;76;51571;-84
2024/03/09 03:27:29;;;;;;;;;;;;;;;21.08;43.07;100629.42;2342707;76;51397;-81
2024/03/09 03:30:31;;;;;;;;;;;;;;;21.09;43.09;100635.14;2305865;76;50403;-82
2024/03/09 03:33:34;;;;;;;;;;;;;;;21.08;43.06;100636.15;2305439;76;50129;-83
2024/03/09 03:36:38;;;;;;;;;;;;;;;21.08;43.14;100625.39;2342665;76;50993;-83
2024/03/09 03:39:39;;;;;;;;;;;;;;;21.08;42.98;100618.66;2343022;76;22511;-82
2024/03/09 03:42:41;;;;;;;;;;;;;;;21.07;42.97;100617.02;2342504;76;51515;-82
2024/03/09 03:45:43;;;;;;;;;;;;;;;21.08;42.96;100616.50;2305561;76;51032;-82
2024/03/09 03:48:47;;;;;;;;;;;;;;;21.07;43.20;100612.16;2342574;76;51403;-81
2024/03/09 03:51:49;;;;;;;;;;;;;;;21.07;43.11;100609.47;2342453;76;51689;-82
2024/03/09 03:54:50;;;;;;;;;;;;;;;21.07;43.27;100612.98;2342533;76;51489;-83
2024/03/09 03:57:52;;;;;;;;;;;;;;;21.06;43.10;100612.64;2280204;76;50976;-83
2024/03/09 04:00:54;;;;;;;;;;;;;;;21.08;43.14;100610.59;2305556;76;50999;-83
2024/03/09 04:03:56;;;;;;;;;;;;;;;21.08;43.22;100599.00;2342309;76;50684;-83
2024/03/09 04:06:58;;;;;;;;;;;;;;;21.07;42.98;100600.88;2342106;76;50703;-83
2024/03/09 04:10:11;;;;;;;;;;;;;;;21.07;43.05;100596.02;2305334;76;51046;-83
2024/03/09 04:13:02;;;;;;;;;;;;;;;21.07;42.91;100590.11;2304216;76;22437;-83
2024/03/09 04:16:04;;;;;;;;;;;;;;;21.07;42.91;100594.67;2307525;72;51531;-81
2024/03/09 04:19:07;;;;;;;;;;;;;;;21.06;42.89;100576.33;2311738;76;50690;-82
2024/03/09 04:22:11;;;;;;;;;;;;;;;21.06;42.84;100591.12;2311215;73;51782;-82
2024/03/09 04:25:12;;;;;;;;;;;;;;;21.07;42.82;100578.00;2348181;73;21864;-82
2024/03/09 04:28:20;;;;;;;;;;;;;;;21.07;42.82;100580.70;2309204;76;50719;-83
2024/03/09 04:31:17;;;;;;;;;;;;;;;21.06;42.68;100579.02;2341486;76;22276;-82
2024/03/09 04:34:23;;;;;;;;;;;;;;;21.08;42.76;100564.03;2305860;76;49696;-83
2024/03/09 04:37:25;;;;;;;;;;;;;;;21.08;42.88;100558.13;2342201;76;22521;-83
2024/03/09 04:40:27;;;;;;;;;;;;;;;21.09;42.92;100558.95;2342445;76;21929;-83
2024/03/09 04:43:32;;;;;;;;;;;;;;;21.08;42.90;100551.41;2306900;76;51205;-81
2024/03/09 04:46:32;;;;;;;;;;;;;;;21.08;42.96;100562.16;2342737;76;22382;-82
2024/03/09 04:49:34;;;;;;;;;;;;;;;21.07;42.94;100553.80;2343780;76;51322;-81
2024/03/09 04:52:37;;;;;;;;;;;;;;;21.08;42.92;100554.61;2343854;76;51589;-82
2024/03/09 04:55:41;;;;;;;;;;;;;;;21.08;42.78;100552.75;2344539;76;51505;-82
2024/03/09 04:58:41;;;;;;;;;;;;;;;21.07;42.73;100546.24;2344696;76;22798;-81
2024/03/09 05:01:46;;;;;;;;;;;;;;;21.08;42.70;100547.37;2344885;76;51495;-81
2024/03/09 05:04:48;;;;;;;;;;;;;;;21.07;42.72;100545.72;2344810;75;52203;-81
2024/03/09 05:07:50;;;;;;;;;;;;;;;21.07;42.75;100545.72;2307997;76;50963;-81
2024/03/09 05:10:52;;;;;;;;;;;;;;;21.06;42.74;100537.31;2307923;76;50896;-81
2024/03/09 05:13:53;;;;;;;;;;;;;;;21.06;42.69;100537.31;2307822;76;51579;-81
2024/03/09 05:16:58;;;;;;;;;;;;;;;21.06;42.63;100540.01;2345207;76;51496;-81
2024/03/09 05:20:10;;;;;;;;;;;;;;;21.06;42.78;100540.01;2345667;76;49760;-82
2024/03/09 05:23:03;;;;;;;;;;;;;;;21.06;42.71;100538.66;2342842;76;22352;-82
2024/03/09 05:26:05;;;;;;;;;;;;;;;21.06;42.75;100535.97;2309624;76;49874;-81
2024/03/09 05:29:07;;;;;;;;;;;;;;;21.05;42.65;100535.67;2345958;76;50704;-83
2024/03/09 05:32:08;;;;;;;;;;;;;;;21.05;42.61;100538.36;2345793;76;50419;-81
2024/03/09 05:35:14;;;;;;;;;;;;;;;21.05;42.65;100536.20;2308443;76;50110;-82
2024/03/09 05:38:15;;;;;;;;;;;;;;;21.05;42.81;100529.47;2345705;76;50757;-82
2024/03/09 05:41:17;;;;;;;;;;;;;;;21.05;42.79;100527.59;2345615;76;50695;-82
2024/03/09 05:44:19;;;;;;;;;;;;;;;21.04;42.84;100534.03;2346151;76;51526;-82
2024/03/09 05:47:21;;;;;;;;;;;;;;;21.06;42.75;100541.87;2309224;76;50157;-82
2024/03/09 05:50:23;;;;;;;;;;;;;;;21.03;42.67;100531.52;2346424;76;50793;-82
2024/03/09 05:53:26;;;;;;;;;;;;;;;21.04;42.74;100525.95;2308776;76;50765;-82
2024/03/09 05:56:28;;;;;;;;;;;;;;;21.04;42.85;100532.68;2345866;76;51856;-81
2024/03/09 05:59:32;;;;;;;;;;;;;;;21.03;42.71;100534.22;2309102;76;51517;-82
2024/03/09 06:02:32;;;;;;;;;;;;;;;21.04;42.76;100529.14;2345977;76;22311;-81
2024/03/09 06:05:34;;;;;;;;;;;;;;;21.04;42.88;100529.14;2309295;76;50766;-83
2024/03/09 06:08:36;;;;;;;;;;;;;;;21.03;42.95;100525.63;2346523;76;50829;-82
2024/03/09 06:11:40;;;;;;;;;;;;;;;21.04;42.82;100519.72;2309171;76;51015;-82
2024/03/09 06:14:44;;;;;;;;;;;;;;;21.04;42.88;100519.72;2346010;76;50466;-81
2024/03/09 06:17:46;;;;;;;;;;;;;;;21.03;42.84;100509.48;2346081;76;22449;-82
2024/03/09 06:20:48;;;;;;;;;;;;;;;21.03;42.81;100505.45;2309929;76;50843;-82
2024/03/09 06:23:49;;;;;;;;;;;;;;;21.02;42.74;100507.84;2308332;76;49890;-82
2024/03/09 06:26:51;;;;;;;;;;;;;;;21.02;42.85;100521.28;2344449;76;51495;-81
2024/03/09 06:29:56;;;;;;;;;;;;;;;21.03;42.72;100508.66;2344092;76;50737;-81
2024/03/09 06:32:57;;;;;;;;;;;;;;;21.03;42.75;100505.45;2343582;76;22348;-82
2024/03/09 06:36:04;;;;;;;;;;;;;;;21.04;42.74;100510.30;2306285;76;49919;-83
2024/03/09 06:39:04;;;;;;;;;;;;;;;21.04;42.73;100518.37;2341634;76;22455;-82
2024/03/09 06:42:08;;;;;;;;;;;;;;;21.03;42.61;100513.52;2309522;76;50872;-80
2024/03/09 06:45:09;;;;;;;;;;;;;;;21.04;42.57;100527.30;2345165;76;22491;-82
2024/03/09 06:48:11;;;;;;;;;;;;;;;21.04;42.53;100527.30;2308152;76;49556;-82
2024/03/09 06:51:13;;;;;;;;;;;;;;;21.04;42.53;100522.41;2345769;76;50703;-82
2024/03/09 06:54:15;;;;;;;;;;;;;;;21.04;42.45;100523.75;2345817;76;51348;-82
2024/03/09 06:57:17;;;;;;;;;;;;;;;21.04;42.47;100512.50;2346186;76;51317;-82
2024/03/09 07:00:20;;;;;;;;;;;;;;;21.04;42.39;100513.84;2346353;76;50725;-82
2024/03/09 07:03:21;;;;;;;;;;;;;;;21.04;42.30;100503.58;2308028;76;51814;-81
2024/03/09 07:06:23;;;;;;;;;;;;;;;21.04;42.49;100511.66;2342811;76;51490;-83
2024/03/09 07:09:24;;;;;;;;;;;;;;;21.04;42.41;100510.30;2342916;76;51482;-82
2024/03/09 07:12:26;;;;;;;;;;;;;;;21.04;42.30;100499.05;2306019;76;49577;-82
2024/03/09 07:15:30;;;;;;;;;;;;;;;21.05;42.39;100499.88;2342841;76;51465;-82
2024/03/09 07:18:34;;;;;;;;;;;;;;;21.05;42.49;100498.01;2343057;76;22466;-81
2024/03/09 07:21:34;;;;;;;;;;;;;;;21.06;42.60;100496.14;2343093;76;22344;-82
2024/03/09 07:24:36;;;;;;;;;;;;;;;21.06;42.59;100492.93;2280626;76;52344;-82
2024/03/09 07:27:40;;;;;;;;;;;;;;;21.08;42.59;100488.70;2342867;76;51749;-82
2024/03/09 07:30:42;;;;;;;;;;;;;;;21.08;42.57;100489.53;2306588;76;22354;-82
2024/03/09 07:33:43;;;;;;;;;;;;;;;21.09;42.66;100480.44;2342519;76;51490;-82
2024/03/09 07:36:45;;;;;;;;;;;;;;;21.10;42.66;100476.70;2305368;76;51231;-82
2024/03/09 07:39:47;;;;;;;;;;;;;;;21.11;42.51;100480.22;2342746;76;50369;-82
2024/03/09 07:42:53;;;;;;;;;;;;;;;21.12;42.59;100487.77;2342528;76;51194;-82
2024/03/09 07:45:54;;;;;;;;;;;;;;;21.14;42.54;100500.51;2342493;76;51011;-82
2024/03/09 07:48:56;;;;;;;;;;;;;;;21.14;42.58;100505.89;2305671;76;50096;-82
2024/03/09 07:51:58;;;;;;;;;;;;;;;21.15;42.55;100499.49;2342563;76;51526;-82
2024/03/09 07:54:59;;;;;;;;;;;;;;;21.15;42.59;100500.31;2342606;76;50776;-83
2024/03/09 07:58:01;;;;;;;;;;;;;;;21.17;42.59;100496.91;2342444;76;50620;-82
2024/03/09 08:01:05;;;;;;;;;;;;;;;21.17;42.67;100495.56;2305382;76;51158;-82
2024/03/09 08:04:06;;;;;;;;;;;;;;;21.19;42.68;100484.58;2306290;76;22445;-82
2024/03/09 08:07:07;;;;;;;;;;;;;;;21.19;42.61;100488.09;2342338;76;51464;-82
2024/03/09 08:10:10;;;;;;;;;;;;;;;21.22;42.66;100485.52;2342443;76;51465;-82
2024/03/09 08:13:12;;;;;;;;;;;;;;;21.22;42.67;100485.52;2305589;76;50117;-82
2024/03/09 08:16:14;;;;;;;;;;;;;;;21.23;42.72;100476.42;2342503;76;51154;-81
2024/03/09 08:19:17;;;;;;;;;;;;;;;21.23;42.71;100477.77;2342756;76;50748;-82
2024/03/09 08:22:22;;;;;;;;;;;;;;;21.23;42.68;100468.35;2342698;76;51467;-83
2024/03/09 08:25:27;;;;;;;;;;;;;;;21.22;42.63;100464.84;2342305;76;22416;-83
2024/03/09 08:28:26;;;;;;;;;;;;;;;21.23;42.68;100461.63;2305960;76;22245;-83
2024/03/09 08:31:27;;;;;;;;;;;;;;;21.23;42.65;100448.17;2342620;76;51522;-82
2024/03/09 08:34:30;;;;;;;;;;;;;;;21.23;42.56;100458.41;2306043;76;50662;-82
2024/03/09 08:37:32;;;;;;;;;;;;;;;21.24;42.64;100443.09;2280605;76;50115;-82
2024/03/09 08:40:34;;;;;;;;;;;;;;;21.26;42.58;100446.41;2342511;76;51418;-82
2024/03/09 08:43:36;;;;;;;;;;;;;;;21.26;42.48;100438.33;2342623;76;51464;-82
2024/03/09 08:46:37;;;;;;;;;;;;;;;21.26;42.52;100432.95;2342459;76;51565;-81
2024/03/09 08:49:39;;;;;;;;;;;;;;;21.28;42.41;100436.27;2342519;76;51411;-81
2024/03/09 08:52:41;;;;;;;;;;;;;;;21.29;42.29;100431.19;2305448;76;50853;-81
2024/03/09 08:55:44;;;;;;;;;;;;;;;21.30;42.25;100426.95;2305554;76;50694;-82
2024/03/09 08:58:46;;;;;;;;;;;;;;;21.32;42.22;100410.58;2308660;76;50919;-82
2024/03/09 09:01:48;;;;;;;;;;;;;;;21.34;42.20;100421.98;2346784;76;50730;-81
2024/03/09 09:04:51;;;;;;;;;;;;;;;21.36;42.12;100411.84;2308690;76;50196;-80
2024/03/09 09:07:54;;;;;;;;;;;;;;;21.37;41.98;100416.70;2344168;76;50338;-82
2024/03/09 09:10:56;;;;;;;;;;;;;;;21.40;41.96;100409.58;2343848;76;50864;-81
2024/03/09 09:13:58;;;;;;;;;;;;;;;21.41;41.88;100408.56;2342356;76;51418;-81
2024/03/09 09:16:59;;;;;;;;;;;;;;;21.43;41.93;100406.50;2342401;76;51609;-81
2024/03/09 09:20:01;;;;;;;;;;;;;;;21.46;41.89;100396.13;2342505;76;51419;-81
2024/03/09 09:23:02;;;;;;;;;;;;;;;21.46;41.83;100388.58;2342350;76;50734;-82
2024/03/09 09:26:04;;;;;;;;;;;;;;;21.48;41.89;100390.03;2305514;76;51507;-81
2024/03/09 09:29:06;;;;;;;;;;;;;;;21.50;41.86;100381.23;2280232;76;51255;-82
2024/03/09 09:32:07;;;;;;;;;;;;;;;21.51;41.93;100381.53;2305368;76;49689;-81
2024/03/09 09:35:09;;;;;;;;;;;;;;;21.53;41.90;100376.77;2342462;76;51482;-81
2024/03/09 09:38:17;;;;;;;;;;;;;;;21.55;41.87;100367.64;2342467;76;50779;-81
2024/03/09 09:41:14;;;;;;;;;;;;;;;21.58;41.96;100369.91;2341473;76;22394;-81
2024/03/09 09:44:17;;;;;;;;;;;;;;;21.59;41.92;100367.02;2342440;76;51921;-81
2024/03/09 09:47:19;;;;;;;;;;;;;;;21.61;41.85;100374.38;2306301;76;51258;-82
2024/03/09 09:50:20;;;;;;;;;;;;;;;21.65;41.79;100349.19;2342583;76;51036;-81
2024/03/09 09:53:22;;;;;;;;;;;;;;;21.65;41.80;100355.40;2305536;76;49410;-81
2024/03/09 09:56:24;;;;;;;;;;;;;;;21.69;41.68;100349.09;2342528;76;50676;-81
2024/03/09 09:59:29;;;;;;;;;;;;;;;21.70;41.77;100344.82;2342537;76;52045;-81
2024/03/09 10:02:30;;;;;;;;;;;;;;;21.71;41.79;100341.64;2342415;76;22323;-82
2024/03/09 10:05:34;;;;;;;;;;;;;;;21.74;41.74;100343.91;2305536;76;51189;-81
2024/03/09 10:08:37;;;;;;;;;;;;;;;21.74;41.70;100336.64;2342516;76;51480;-80
2024/03/09 10:11:39;;;;;;;;;;;;;;;21.77;41.68;100342.13;2339885;76;52203;-80
2024/03/09 10:14:41;;;;;;;;;;;;;;;21.79;41.73;100338.70;2342458;76;51490;-80
2024/03/09 10:17:43;;;;;;;;;;;;;;;21.82;41.60;100336.94;2305572;76;52766;-81
2024/03/09 10:20:44;;;;;;;;;;;;;;;21.83;41.72;100342.61;2305783;76;50645;-81
2024/03/09 10:23:46;;;;;;;;;;;;;;;21.82;41.64;100336.11;2342571;76;51808;-81
2024/03/09 10:26:48;;;;;;;;;;;;;;;21.83;41.68;100337.23;2342473;76;50627;-81
2024/03/09 10:29:50;;;;;;;;;;;;;;;21.84;41.67;100321.39;2305318;76;50984;-81
2024/03/09 10:32:54;;;;;;;;;;;;;;;21.86;41.66;100315.28;2305743;76;51538;-81
2024/03/09 10:35:57;;;;;;;;;;;;;;;21.89;41.49;100314.84;2342441;76;50741;-81
2024/03/09 10:39:00;;;;;;;;;;;;;;;21.89;41.64;100302.72;2342503;76;51562;-80
2024/03/09 10:42:01;;;;;;;;;;;;;;;21.90;41.63;100304.36;2305543;76;51001;-82
2024/03/09 10:45:03;;;;;;;;;;;;;;;21.92;41.54;100304.98;2305410;76;51793;-82
2024/03/09 10:48:05;;;;;;;;;;;;;;;21.93;41.60;100303.11;2342470;76;51478;-82
2024/03/09 10:51:14;;;;;;;;;;;;;;;21.95;41.56;100295.66;2342637;76;51438;-81
2024/03/09 10:54:17;;;;;;;;;;;;;;;21.95;41.57;100296.47;2305036;76;50105;-81
2024/03/09 10:57:21;;;;;;;;;;;;;;;21.96;41.57;100298.14;2342688;76;51523;-80
2024/03/09 11:00:28;;;;;;;;;;;;;;;21.98;41.60;100285.79;2342624;76;22326;-80
2024/03/09 11:03:26;;;;;;;;;;;;;;;22.00;41.54;100286.94;2341486;76;22309;-81
2024/03/09 11:06:28;;;;;;;;;;;;;;;22.01;41.56;100279.97;2305248;76;50128;-81
2024/03/09 11:09:30;;;;;;;;;;;;;;;22.02;41.46;100278.13;2342418;76;50533;-82
2024/03/09 11:12:31;;;;;;;;;;;;;;;22.04;41.42;100266.59;2342313;76;51573;-81
2024/03/09 11:15:37;;;;;;;;;;;;;;;22.03;41.52;100266.29;2342425;76;51333;-82
2024/03/09 11:18:40;;;;;;;;;;;;;;;22.03;41.53;100259.56;2306821;76;49016;-80
2024/03/09 11:21:42;;;;;;;;;;;;;;;22.03;41.55;100254.98;2306791;76;51559;-81
2024/03/09 11:24:44;;;;;;;;;;;;;;;22.04;41.50;100255.31;2306498;76;51554;-80
2024/03/09 11:27:46;;;;;;;;;;;;;;;22.05;41.50;100256.13;2343184;76;50794;-80
2024/03/09 11:31:10;;;;;;;;;;;;;;;22.02;41.52;100253.87;2280360;76;51061;-81
2024/03/09 11:34:08;;;;;;;;;;;;;;;21.99;41.46;100256.97;2303889;76;22359;-80
2024/03/09 11:37:13;;;;;;;;;;;;;;;21.96;41.48;100257.73;2342434;76;50728;-82
2024/03/09 11:40:13;;;;;;;;;;;;;;;21.92;41.45;100241.69;2342431;76;23192;-81
2024/03/09 11:43:15;;;;;;;;;;;;;;;21.90;41.36;100235.68;2280074;76;50968;-82
2024/03/09 11:46:16;;;;;;;;;;;;;;;21.85;41.42;100235.50;2342173;76;50446;-82
2024/03/09 11:49:18;;;;;;;;;;;;;;;21.84;41.38;100233.03;2342403;76;50377;-81
2024/03/09 11:52:22;;;;;;;;;;;;;;;21.80;41.45;100226.41;2342576;76;50240;-82
2024/03/09 11:55:24;;;;;;;;;;;;;;;21.77;41.46;100233.05;2343010;76;22194;-83
2024/03/09 11:58:26;;;;;;;;;;;;;;;21.75;41.45;100233.78;2305610;76;50425;-82
2024/03/09 12:01:28;;;;;;;;;;;;;;;21.73;41.47;100227.78;2342325;76;51475;-82
2024/03/09 12:04:32;;;;;;;;;;;;;;;21.71;41.49;100221.80;2305834;76;50786;-83
2024/03/09 12:07:33;;;;;;;;;;;;;;;21.69;41.43;100223.87;2342766;76;22042;-79
2024/03/09 12:10:35;;;;;;;;;;;;;;;21.70;41.39;100220.95;2342501;76;50244;-80
2024/03/09 12:13:37;;;;;;;;;;;;;;;21.67;41.40;100220.57;2342336;76;51512;-80
2024/03/09 12:16:39;;;;;;;;;;;;;;;21.67;41.39;100224.08;2342265;76;50769;-80
2024/03/09 12:19:41;;;;;;;;;;;;;;;21.66;41.42;100218.93;2280313;76;49577;-82
2024/03/09 12:22:42;;;;;;;;;;;;;;;21.63;41.50;100216.14;2342565;76;51418;-81
2024/03/09 12:25:45;;;;;;;;;;;;;;;21.63;41.58;100211.25;2342544;76;50419;-80
2024/03/09 12:28:47;;;;;;;;;;;;;;;21.61;41.58;100207.97;2342469;76;51645;-81
2024/03/09 12:31:48;;;;;;;;;;;;;;;21.61;41.59;100209.31;2305532;76;50993;-80
2024/03/09 12:34:51;;;;;;;;;;;;;;;21.59;41.65;100206.83;2342487;76;51267;-80
2024/03/09 12:37:53;;;;;;;;;;;;;;;21.58;41.70;100205.68;2342462;76;50480;-82
2024/03/09 12:40:54;;;;;;;;;;;;;;;21.59;41.75;100189.85;2342604;75;50455;-81
2024/03/09 12:43:59;;;;;;;;;;;;;;;21.57;41.74;100187.89;2281041;76;50126;-81
2024/03/09 12:47:00;;;;;;;;;;;;;;;21.56;41.75;100183.56;2338412;76;52651;-82
2024/03/09 12:50:03;;;;;;;;;;;;;;;21.56;41.79;100182.22;2342740;75;50251;-81
2024/03/09 12:53:07;;;;;;;;;;;;;;;21.55;41.77;100187.27;2342725;76;51570;-82
2024/03/09 12:56:08;;;;;;;;;;;;;;;21.52;41.78;100179.10;2342626;76;22100;-82
2024/03/09 12:59:12;;;;;;;;;;;;;;;21.53;41.84;100184.28;2342388;76;51680;-82
2024/03/09 13:02:15;;;;;;;;;;;;;;;21.52;41.84;100179.92;2341430;76;50888;-81
2024/03/09 13:05:18;;;;;;;;;;;;;;;21.50;41.84;100175.79;2342791;76;22308;-81
2024/03/09 13:08:26;;;;;;;;;;;;;;;21.49;41.88;100172.28;2305497;76;49638;-81
2024/03/09 13:11:26;;;;;;;;;;;;;;;21.50;41.87;100170.41;2305553;76;22537;-83
2024/03/09 13:14:27;;;;;;;;;;;;;;;21.48;41.89;100172.52;2342561;76;22376;-82
2024/03/09 13:17:29;;;;;;;;;;;;;;;21.45;41.91;100161.66;2342557;76;51514;-82
2024/03/09 13:20:31;;;;;;;;;;;;;;;21.45;41.94;100157.62;2305914;76;50804;-81
2024/03/09 13:23:33;;;;;;;;;;;;;;;21.45;42.03;100160.80;2342715;76;50311;-82
2024/03/09 13:26:35;;;;;;;;;;;;;;;21.44;41.99;100157.81;2342262;76;49930;-82
2024/03/09 13:29:37;;;;;;;;;;;;;;;21.43;42.09;100154.31;2342348;76;51457;-81
2024/03/09 13:32:38;;;;;;;;;;;;;;;21.43;42.08;100152.96;2306537;76;51105;-81
2024/03/09 13:35:43;;;;;;;;;;;;;;;21.42;42.11;100149.13;2345975;73;51548;-81
2024/03/09 13:38:44;;;;;;;;;;;;;;;21.42;42.14;100139.17;2348231;72;22178;-83
2024/03/09 13:41:45;;;;;;;;;;;;;;;21.42;42.14;100137.02;2348401;75;51576;-83
2024/03/09 13:44:49;;;;;;;;;;;;;;;21.41;42.12;100134.03;2306922;74;50133;-82
2024/03/09 13:47:52;;;;;;;;;;;;;;;21.42;42.06;100127.06;2306824;76;22383;-82
2024/03/09 13:50:53;;;;;;;;;;;;;;;21.42;42.05;100122.20;2338300;76;50517;-82
2024/03/09 13:53:55;;;;;;;;;;;;;;;21.41;42.05;100115.19;2305806;76;51436;-82
2024/03/09 13:56:56;;;;;;;;;;;;;;;21.41;42.01;100107.94;2305283;76;49637;-82
2024/03/09 13:59:58;;;;;;;;;;;;;;;21.40;42.08;100107.64;2342492;76;50485;-82
2024/03/09 14:03:00;;;;;;;;;;;;;;;21.40;42.04;100113.02;2342586;76;51485;-82
2024/03/09 14:06:02;;;;;;;;;;;;;;;21.40;42.06;100099.56;2342371;76;50554;-81
2024/03/09 14:09:04;;;;;;;;;;;;;;;21.39;42.11;100104.63;2341660;76;22553;-81
2024/03/09 14:12:08;;;;;;;;;;;;;;;21.39;42.17;100102.45;2341864;75;50923;-83
2024/03/09 14:15:20;;;;;;;;;;;;;;;21.39;42.15;100097.89;2342198;76;24316;-80
2024/03/09 14:18:16;;;;;;;;;;;;;;;21.39;42.21;100105.15;2339912;76;22337;-80
2024/03/09 14:21:23;;;;;;;;;;;;;;;21.37;42.18;100089.17;2281031;76;51054;-81
2024/03/09 14:24:22;;;;;;;;;;;;;;;21.37;42.24;100081.09;2341648;76;22875;-81
2024/03/09 14:27:23;;;;;;;;;;;;;;;21.38;42.19;100084.64;2342552;76;50749;-81
2024/03/09 14:30:32;;;;;;;;;;;;;;;21.37;42.22;100080.28;2342894;76;50726;-80
2024/03/09 14:33:28;;;;;;;;;;;;;;;21.35;42.23;100069.75;2340782;75;22416;-80
2024/03/09 14:36:35;;;;;;;;;;;;;;;21.35;42.25;100073.78;2343023;76;50770;-81
2024/03/09 14:39:36;;;;;;;;;;;;;;;21.35;42.22;100068.90;2340673;76;22312;-80
2024/03/09 14:42:36;;;;;;;;;;;;;;;21.34;42.24;100072.12;2342526;76;22356;-81
2024/03/09 14:45:38;;;;;;;;;;;;;;;21.34;42.28;100069.42;2305505;76;51245;-82
2024/03/09 14:48:45;;;;;;;;;;;;;;;21.34;42.25;100069.95;2305837;76;49656;-80
2024/03/09 14:51:47;;;;;;;;;;;;;;;21.33;42.29;100062.41;2342673;76;22439;-80
2024/03/09 14:54:48;;;;;;;;;;;;;;;21.32;42.28;100062.08;2342529;76;51479;-80
2024/03/09 14:57:53;;;;;;;;;;;;;;;21.32;42.29;100058.05;2305569;76;50921;-81
2024/03/09 15:00:59;;;;;;;;;;;;;;;21.33;42.31;100065.62;2306486;76;22292;-81
2024/03/09 15:03:57;;;;;;;;;;;;;;;21.32;42.26;100055.35;2341023;76;22385;-81
2024/03/09 15:06:59;;;;;;;;;;;;;;;21.31;42.31;100058.57;2342499;76;51401;-80
2024/03/09 15:10:00;;;;;;;;;;;;;;;21.31;42.40;100051.02;2305625;76;51595;-81
2024/03/09 15:13:02;;;;;;;;;;;;;;;21.30;42.36;100054.77;2342534;76;50077;-81
2024/03/09 15:16:06;;;;;;;;;;;;;;;21.30;42.38;100052.08;2305617;76;50450;-80
2024/03/09 15:19:10;;;;;;;;;;;;;;;21.30;42.38;100054.24;2341091;76;51473;-81
2024/03/09 15:22:14;;;;;;;;;;;;;;;21.29;42.35;100054.45;2342631;76;22371;-81
2024/03/09 15:25:15;;;;;;;;;;;;;;;21.28;42.43;100049.59;2342196;76;22670;-81
2024/03/09 15:28:17;;;;;;;;;;;;;;;21.28;42.29;100042.05;2342400;76;50916;-81
2024/03/09 15:31:18;;;;;;;;;;;;;;;21.28;42.36;100047.42;2342493;76;50563;-81
2024/03/09 15:34:20;;;;;;;;;;;;;;;21.27;42.33;100043.06;2305305;76;49605;-80
2024/03/09 15:37:22;;;;;;;;;;;;;;;21.27;42.33;100051.14;2305390;76;50407;-80